createdAt,value
2023-05-11T00:02:25.870Z,51.61
2023-05-11T00:05:28.728Z,52.01
2023-05-11T00:08:31.295Z,52.04
2023-05-11T00:11:33.845Z,51.93
2023-05-11T00:14:36.498Z,51.91
2023-05-11T00:17:39.129Z,52.00
2023-05-11T00:20:41.837Z,52.32
2023-05-11T00:23:44.418Z,52.21
2023-05-11T00:26:47.026Z,52.50
2023-05-11T00:29:50.146Z,52.80
2023-05-11T00:32:52.853Z,52.39
2023-05-11T00:35:55.465Z,52.91
2023-05-11T00:38:57.993Z,52.20
2023-05-11T00:42:42.877Z,52.90
2023-05-11T00:45:48.173Z,52.84
2023-05-11T00:48:50.844Z,52.72
2023-05-11T00:51:53.428Z,52.78
2023-05-11T00:54:56.289Z,52.24
2023-05-11T00:57:59.865Z,52.42
2023-05-11T01:01:14.950Z,52.64
2023-05-11T01:04:17.989Z,52.58
2023-05-11T01:07:34.902Z,52.80
2023-05-11T01:14:58.201Z,52.99
2023-05-11T01:18:07.237Z,53.65
2023-05-11T01:21:11.632Z,53.62
2023-05-11T01:24:23.991Z,53.55
2023-05-11T01:27:51.847Z,53.19
2023-05-11T01:31:23.168Z,53.33
2023-05-11T01:34:30.826Z,53.32
2023-05-11T01:37:35.273Z,53.29
2023-05-11T01:40:41.652Z,53.56
2023-05-11T01:43:53.878Z,53.88
2023-05-11T01:47:00.546Z,54.11
2023-05-11T01:50:05.242Z,53.90
2023-05-11T01:53:09.771Z,53.64
2023-05-11T01:56:14.263Z,53.59
2023-05-11T01:59:19.060Z,53.95
2023-05-11T02:02:22.951Z,53.72
2023-05-11T02:05:26.857Z,53.95
2023-05-11T02:08:31.923Z,54.11
2023-05-11T02:11:35.725Z,54.16
2023-05-11T02:14:39.652Z,54.15
2023-05-11T02:17:43.797Z,54.04
2023-05-11T02:20:48.168Z,54.07
2023-05-11T02:23:51.897Z,54.16
2023-05-11T02:26:54.822Z,54.12
2023-05-11T02:29:58.099Z,53.96
2023-05-11T02:33:06.478Z,53.88
2023-05-11T02:36:11.007Z,54.22
2023-05-11T02:39:18.494Z,54.24
2023-05-11T02:42:22.905Z,54.20
2023-05-11T02:45:30.804Z,54.33
2023-05-11T02:48:40.065Z,54.53
2023-05-11T02:51:45.051Z,54.68
2023-05-11T02:54:51.249Z,54.18
2023-05-11T02:57:54.589Z,54.48
2023-05-11T03:00:58.605Z,54.73
2023-05-11T03:04:04.772Z,54.53
2023-05-11T03:07:08.349Z,55.22
2023-05-11T03:10:11.606Z,54.80
2023-05-11T03:13:14.499Z,54.71
2023-05-11T03:16:21.022Z,54.87
2023-05-11T03:19:24.374Z,55.08
2023-05-11T03:22:27.790Z,54.94
2023-05-11T03:25:30.962Z,55.13
2023-05-11T03:28:34.908Z,55.00
2023-05-11T03:31:37.802Z,54.81
2023-05-11T03:34:40.608Z,55.43
2023-05-11T03:37:45.203Z,55.17
2023-05-11T03:40:49.295Z,54.94
2023-05-11T03:43:53.464Z,54.65
2023-05-11T03:46:57.913Z,54.81
2023-05-11T03:50:02.599Z,54.94
2023-05-11T03:53:06.150Z,55.02
2023-05-11T03:56:09.017Z,54.86
2023-05-11T03:59:16.489Z,55.06
2023-05-11T04:02:19.309Z,55.03
2023-05-11T04:05:22.024Z,55.05
2023-05-11T04:08:24.844Z,54.96
2023-05-11T04:11:27.760Z,54.90
2023-05-11T04:14:30.382Z,54.99
2023-05-11T04:17:33.114Z,55.38
2023-05-11T04:20:35.750Z,55.08
2023-05-11T04:23:38.339Z,55.11
2023-05-11T04:26:40.986Z,55.53
2023-05-11T04:29:43.715Z,55.56
2023-05-11T04:32:46.359Z,55.79
2023-05-11T04:35:53.274Z,55.62
2023-05-11T04:38:56.052Z,56.16
2023-05-11T04:42:00.058Z,56.19
2023-05-11T04:45:02.613Z,56.00
2023-05-11T04:48:06.698Z,56.10
2023-05-11T04:51:10.065Z,56.48
2023-05-11T04:54:12.654Z,56.56
2023-05-11T04:57:15.412Z,56.52
2023-05-11T05:00:21.338Z,56.29
2023-05-11T05:03:24.811Z,56.95
2023-05-11T05:06:27.601Z,56.74
2023-05-11T05:09:30.491Z,57.01
2023-05-11T05:12:33.040Z,56.94
2023-05-11T05:15:35.707Z,56.53
2023-05-11T05:18:38.320Z,56.71
2023-05-11T05:21:41.309Z,56.87
2023-05-11T05:24:43.900Z,56.89
2023-05-11T05:27:46.426Z,56.86
2023-05-11T05:30:49.070Z,56.98
2023-05-11T05:33:51.808Z,56.93
2023-05-11T05:36:54.387Z,56.90
2023-05-11T05:39:56.938Z,57.06
2023-05-11T05:42:59.436Z,57.04
2023-05-11T05:46:02.241Z,56.53
2023-05-11T05:49:05.023Z,56.79
2023-05-11T05:52:07.794Z,56.56
2023-05-11T05:55:10.453Z,56.27
2023-05-11T05:58:13.114Z,56.67
2023-05-11T06:01:15.952Z,56.45
2023-05-11T06:04:18.939Z,56.60
2023-05-11T06:07:21.567Z,56.29
2023-05-11T06:10:24.186Z,56.26
2023-05-11T06:13:26.727Z,56.31
2023-05-11T06:16:29.369Z,56.34
2023-05-11T06:19:32.279Z,56.35
2023-05-11T06:22:35.865Z,56.32
2023-05-11T06:25:38.737Z,56.25
2023-05-11T06:28:41.257Z,56.15
2023-05-11T06:31:43.898Z,56.29
2023-05-11T06:34:46.570Z,56.08
2023-05-11T06:37:49.398Z,55.93
2023-05-11T06:40:53.475Z,55.97
2023-05-11T06:43:56.167Z,55.90
2023-05-11T06:46:59.048Z,55.54
2023-05-11T06:50:30.270Z,55.62
2023-05-11T06:53:33.119Z,55.51
2023-05-11T06:56:37.050Z,55.37
2023-05-11T06:59:39.680Z,55.26
2023-05-11T07:02:43.462Z,55.17
2023-05-11T07:05:46.082Z,55.09
2023-05-11T07:08:48.815Z,54.98
2023-05-11T07:11:52.242Z,54.89
2023-05-11T07:14:54.947Z,54.93
2023-05-11T07:17:57.490Z,55.04
2023-05-11T07:21:00.170Z,54.74
2023-05-11T07:24:03.453Z,54.82
2023-05-11T07:27:06.086Z,54.64
2023-05-11T07:30:09.311Z,54.67
2023-05-11T07:33:12.062Z,54.51
2023-05-11T07:36:15.028Z,54.68
2023-05-11T07:39:17.664Z,54.66
2023-05-11T07:42:20.368Z,54.63
2023-05-11T07:45:22.999Z,54.42
2023-05-11T07:48:25.552Z,54.48
2023-05-11T07:51:28.151Z,54.53
2023-05-11T07:54:36.784Z,54.18
2023-05-11T07:57:39.375Z,54.12
2023-05-11T08:00:41.998Z,53.88
2023-05-11T08:03:44.648Z,53.93
2023-05-11T08:06:47.318Z,53.77
2023-05-11T08:09:49.873Z,53.52
2023-05-11T08:12:52.645Z,53.39
2023-05-11T08:15:55.653Z,53.34
2023-05-11T08:18:58.312Z,53.35
2023-05-11T08:22:01.661Z,53.10
2023-05-11T08:25:05.881Z,52.95
2023-05-11T08:28:08.547Z,52.69
2023-05-11T08:31:12.040Z,52.51
2023-05-11T08:34:19.789Z,52.05
2023-05-11T08:37:23.483Z,51.62
2023-05-11T08:40:28.749Z,50.95
2023-05-11T08:43:34.532Z,49.81
2023-05-11T08:46:42.166Z,49.76
2023-05-11T08:49:45.149Z,50.24
2023-05-11T08:52:48.352Z,49.41
2023-05-11T08:55:51.639Z,49.47
2023-05-11T08:58:57.856Z,49.06
2023-05-11T09:02:02.404Z,47.56
2023-05-11T09:05:06.416Z,48.09
2023-05-11T09:08:12.388Z,47.75
2023-05-11T09:11:15.800Z,47.63
2023-05-11T09:14:18.574Z,47.35
2023-05-11T09:17:25.764Z,46.10
2023-05-11T09:20:31.805Z,45.30
2023-05-11T09:23:34.470Z,45.58
2023-05-11T09:26:37.091Z,44.52
2023-05-11T09:29:39.696Z,44.04
2023-05-11T09:32:56.889Z,42.01
2023-05-11T09:35:59.791Z,39.75
2023-05-11T09:39:04.179Z,40.19
2023-05-11T09:42:18.488Z,40.10
2023-05-11T09:45:40.300Z,38.97
2023-05-11T09:48:43.069Z,37.51
2023-05-11T09:51:45.735Z,36.60
2023-05-11T09:54:51.979Z,36.39
2023-05-11T09:57:59.261Z,37.06
2023-05-11T10:01:01.848Z,35.92
2023-05-11T10:04:22.195Z,34.03
2023-05-11T10:07:28.804Z,34.18
2023-05-11T10:10:33.679Z,35.93
2023-05-11T10:13:40.305Z,36.43
2023-05-11T10:16:44.019Z,35.54
2023-05-11T10:19:48.404Z,35.33
2023-05-11T10:22:53.600Z,35.89
2023-05-11T10:25:58.182Z,35.98
2023-05-11T10:29:01.914Z,35.97
2023-05-11T10:32:07.299Z,35.77
2023-05-11T10:35:10.371Z,36.91
2023-05-11T10:38:15.136Z,36.74
2023-05-11T10:41:36.638Z,37.95
2023-05-11T10:44:58.660Z,36.23
2023-05-11T10:48:29.257Z,37.37
2023-05-11T10:51:50.499Z,37.93
2023-05-11T10:55:06.923Z,37.86
2023-05-11T10:58:15.967Z,37.82
2023-05-11T11:01:39.649Z,38.81
2023-05-11T11:04:46.698Z,39.26
2023-05-11T11:08:00.375Z,39.29
2023-05-11T11:11:04.978Z,39.47
2023-05-11T11:14:10.286Z,39.80
2023-05-11T11:17:16.099Z,39.96
2023-05-11T11:20:49.337Z,40.15
2023-05-11T11:23:52.251Z,40.36
2023-05-11T11:26:54.943Z,39.85
2023-05-11T11:30:22.692Z,39.91
2023-05-11T11:33:25.720Z,39.61
2023-05-11T11:36:58.528Z,39.71
2023-05-11T11:40:09.516Z,39.39
2023-05-11T11:43:22.587Z,38.89
2023-05-11T11:46:27.356Z,38.78
2023-05-11T11:49:29.997Z,38.94
2023-05-11T11:52:34.353Z,39.03
2023-05-11T11:55:52.123Z,38.31
2023-05-11T11:58:59.788Z,38.36
2023-05-11T12:02:04.107Z,38.59
2023-05-11T12:05:19.014Z,38.95
2023-05-11T12:08:23.368Z,39.06
2023-05-11T12:11:29.540Z,38.84
2023-05-11T12:14:33.702Z,39.23
2023-05-11T12:17:38.936Z,39.00
2023-05-11T12:20:42.003Z,38.60
2023-05-11T12:23:55.419Z,38.83
2023-05-11T12:26:58.153Z,38.88
2023-05-11T12:30:01.299Z,38.66
2023-05-11T12:33:04.737Z,38.30
2023-05-11T12:36:08.693Z,38.15
2023-05-11T12:39:37.696Z,38.22
2023-05-11T12:42:57.357Z,38.00
2023-05-11T12:46:00.015Z,37.87
2023-05-11T12:49:03.298Z,38.19
2023-05-11T12:52:10.516Z,38.48
2023-05-11T12:55:17.809Z,38.27
2023-05-11T12:58:21.340Z,38.20
2023-05-11T13:01:24.483Z,38.00
2023-05-11T13:04:31.157Z,38.03
2023-05-11T13:07:33.815Z,37.99
2023-05-11T13:10:36.583Z,37.68
2023-05-11T13:13:39.202Z,37.40
2023-05-11T13:16:52.864Z,37.26
2023-05-11T13:19:55.833Z,36.83
2023-05-11T13:23:13.335Z,35.61
2023-05-11T13:26:22.991Z,34.82
2023-05-11T13:29:26.323Z,34.57
2023-05-11T13:32:29.146Z,34.48
2023-05-11T13:35:31.778Z,34.47
2023-05-11T13:38:34.350Z,35.45
2023-05-11T13:41:37.053Z,35.55
2023-05-11T13:44:39.815Z,35.32
2023-05-11T13:47:45.349Z,35.20
2023-05-11T13:50:48.581Z,35.23
2023-05-11T13:53:51.350Z,35.77
2023-05-11T13:56:54.121Z,35.63
2023-05-11T13:59:56.995Z,35.86
2023-05-11T14:03:00.722Z,36.27
2023-05-11T14:06:03.654Z,36.14
2023-05-11T14:09:06.210Z,36.26
2023-05-11T14:12:08.786Z,35.44
2023-05-11T14:15:11.953Z,34.60
2023-05-11T14:18:14.790Z,33.40
2023-05-11T14:21:17.803Z,33.21
2023-05-11T14:24:20.752Z,33.76
2023-05-11T14:27:23.389Z,34.40
2023-05-11T14:30:25.904Z,34.76
2023-05-11T14:33:28.770Z,34.55
2023-05-11T14:36:32.153Z,33.59
2023-05-11T14:39:34.743Z,33.46
2023-05-11T14:42:38.092Z,31.97
2023-05-11T14:45:40.998Z,31.74
2023-05-11T14:48:43.782Z,31.94
2023-05-11T14:51:46.336Z,31.44
2023-05-11T14:54:49.619Z,30.96
2023-05-11T14:57:53.257Z,31.35
2023-05-11T15:00:56.030Z,30.76
2023-05-11T15:03:58.709Z,30.20
2023-05-11T15:07:01.693Z,29.85
2023-05-11T15:10:05.838Z,30.45
2023-05-11T15:13:10.052Z,30.69
2023-05-11T15:16:12.718Z,31.20
2023-05-11T15:19:15.443Z,31.44
2023-05-11T15:22:19.193Z,32.01
2023-05-11T15:25:21.990Z,32.24
2023-05-11T15:28:25.770Z,32.44
2023-05-11T15:31:28.451Z,32.85
2023-05-11T15:34:31.085Z,33.38
2023-05-11T15:37:33.745Z,33.43
2023-05-11T15:40:36.408Z,33.43
2023-05-11T15:43:39.178Z,33.54
2023-05-11T15:46:41.804Z,33.52
2023-05-11T15:49:44.607Z,33.69
2023-05-11T15:52:47.273Z,33.90
2023-05-11T15:55:51.313Z,34.22
2023-05-11T15:58:54.156Z,33.99
2023-05-11T16:01:56.900Z,33.83
2023-05-11T16:04:59.567Z,33.67
2023-05-11T16:08:02.331Z,33.28
2023-05-11T16:11:04.997Z,32.72
2023-05-11T16:14:07.586Z,32.47
2023-05-11T16:17:10.366Z,32.61
2023-05-11T16:20:13.055Z,32.71
2023-05-11T16:23:16.053Z,32.33
2023-05-11T16:26:19.011Z,31.99
2023-05-11T16:29:21.714Z,32.67
2023-05-11T16:32:24.697Z,32.83
2023-05-11T16:35:27.473Z,33.21
2023-05-11T16:38:30.221Z,33.37
2023-05-11T16:41:32.827Z,33.64
2023-05-11T16:44:35.366Z,33.64
2023-05-11T16:47:37.941Z,33.42
2023-05-11T16:50:40.481Z,33.07
2023-05-11T16:53:44.973Z,32.72
2023-05-11T16:56:47.642Z,32.69
2023-05-11T16:59:50.306Z,32.76
2023-05-11T17:02:53.029Z,33.08
2023-05-11T17:05:56.167Z,33.26
2023-05-11T17:08:58.843Z,33.40
2023-05-11T17:12:01.482Z,33.37
2023-05-11T17:15:09.550Z,33.65
2023-05-11T17:18:12.125Z,33.88
2023-05-11T17:21:14.923Z,33.99
2023-05-11T17:24:17.587Z,34.19
2023-05-11T17:27:20.216Z,34.40
2023-05-11T17:30:27.668Z,34.63
2023-05-11T17:33:39.576Z,34.54
2023-05-11T17:36:42.355Z,34.75
2023-05-11T17:39:47.199Z,35.01
2023-05-11T17:42:50.447Z,35.26
2023-05-11T17:45:53.059Z,35.26
2023-05-11T17:48:56.763Z,35.64
2023-05-11T17:51:59.675Z,35.51
2023-05-11T17:55:03.968Z,35.79
2023-05-11T17:58:06.563Z,35.96
2023-05-11T18:01:11.019Z,36.18
2023-05-11T18:04:13.672Z,36.15
2023-05-11T18:07:16.273Z,36.06
2023-05-11T18:10:19.285Z,36.10
2023-05-11T18:13:22.820Z,36.29
2023-05-11T18:16:26.651Z,36.50
2023-05-11T18:19:29.236Z,36.50
2023-05-11T18:22:31.884Z,36.81
2023-05-11T18:25:34.507Z,36.78
2023-05-11T18:28:37.178Z,36.72
2023-05-11T18:31:39.997Z,37.08
2023-05-11T18:34:42.812Z,37.06
2023-05-11T18:37:45.451Z,37.35
2023-05-11T18:40:48.079Z,37.32
2023-05-11T18:43:52.860Z,37.52
2023-05-11T18:46:55.438Z,37.67
2023-05-11T18:49:58.719Z,37.86
2023-05-11T18:53:02.208Z,38.01
2023-05-11T18:56:05.669Z,38.17
2023-05-11T18:59:08.530Z,38.24
2023-05-11T19:02:11.224Z,38.36
2023-05-11T19:05:14.067Z,38.52
2023-05-11T19:08:16.739Z,38.66
2023-05-11T19:11:19.458Z,38.92
2023-05-11T19:14:22.303Z,39.13
2023-05-11T19:17:24.862Z,38.99
2023-05-11T19:20:27.549Z,39.31
2023-05-11T19:23:30.142Z,39.24
2023-05-11T19:26:33.418Z,39.45
2023-05-11T19:29:36.123Z,39.49
2023-05-11T19:32:38.971Z,39.54
2023-05-11T19:35:41.691Z,39.46
2023-05-11T19:38:44.316Z,39.48
2023-05-11T19:41:46.875Z,39.56
2023-05-11T19:44:50.558Z,39.42
2023-05-11T19:47:55.077Z,39.56
2023-05-11T19:50:58.994Z,39.44
2023-05-11T19:54:01.620Z,39.51
2023-05-11T19:57:04.761Z,39.41
2023-05-11T20:00:08.118Z,39.59
2023-05-11T20:03:10.763Z,39.61
2023-05-11T20:06:13.495Z,39.68
2023-05-11T20:09:16.101Z,39.65
2023-05-11T20:12:18.723Z,39.83
2023-05-11T20:15:21.356Z,39.98
2023-05-11T20:18:23.983Z,40.01
2023-05-11T20:21:26.685Z,40.07
2023-05-11T20:24:29.605Z,39.93
2023-05-11T20:27:32.278Z,40.18
2023-05-11T20:30:36.688Z,40.15
2023-05-11T20:36:44.771Z,40.31
2023-05-11T20:39:47.478Z,40.49
2023-05-11T20:42:50.000Z,40.64
2023-05-11T20:45:52.653Z,40.70
2023-05-11T20:48:55.513Z,40.66
2023-05-11T20:51:58.207Z,40.97
2023-05-11T20:55:00.848Z,40.75
2023-05-11T20:58:05.184Z,41.05
2023-05-11T21:01:08.438Z,40.92
2023-05-11T21:04:11.109Z,41.01
2023-05-11T21:07:13.710Z,41.26
2023-05-11T21:10:16.447Z,41.63
2023-05-11T21:13:19.002Z,41.48
2023-05-11T21:16:21.862Z,41.42
2023-05-11T21:19:24.647Z,41.58
2023-05-11T21:22:27.411Z,41.64
2023-05-11T21:25:29.977Z,41.74
2023-05-11T21:28:34.650Z,42.05
2023-05-11T21:31:37.762Z,42.12
2023-05-11T21:34:40.426Z,42.22
2023-05-11T21:37:45.346Z,42.39
2023-05-11T21:40:52.630Z,42.47
2023-05-11T21:43:55.138Z,42.39
2023-05-11T21:46:57.685Z,42.65
2023-05-11T21:50:00.483Z,42.63
2023-05-11T21:53:03.387Z,42.68
2023-05-11T21:56:06.143Z,42.83
2023-05-11T21:59:08.718Z,43.25
2023-05-11T22:02:11.830Z,42.84
2023-05-11T22:05:14.871Z,42.91
2023-05-11T22:08:17.527Z,42.90
2023-05-11T22:11:21.848Z,42.95
2023-05-11T22:14:24.443Z,43.21
2023-05-11T22:17:27.084Z,43.49
2023-05-11T22:20:31.766Z,43.45
2023-05-11T22:23:35.505Z,43.32
2023-05-11T22:26:38.335Z,43.52
2023-05-11T22:29:44.060Z,43.56
2023-05-11T22:32:46.638Z,43.43
2023-05-11T22:35:49.398Z,43.65
2023-05-11T22:38:52.061Z,43.44
2023-05-11T22:41:54.989Z,43.64
2023-05-11T22:44:57.997Z,43.52
2023-05-11T22:48:01.866Z,43.57
2023-05-11T22:51:06.457Z,43.72
2023-05-11T22:54:09.250Z,43.77
2023-05-11T22:57:14.863Z,43.67
2023-05-11T23:00:18.225Z,43.76
2023-05-11T23:03:21.329Z,43.68
2023-05-11T23:06:24.847Z,43.75
2023-05-11T23:09:27.755Z,43.85
2023-05-11T23:12:30.378Z,43.86
2023-05-11T23:15:32.948Z,44.07
2023-05-11T23:18:35.971Z,44.12
2023-05-11T23:21:38.782Z,44.13
2023-05-11T23:24:41.550Z,44.23
2023-05-11T23:27:44.226Z,44.31
2023-05-11T23:30:47.378Z,44.35
2023-05-11T23:33:49.886Z,44.30
2023-05-11T23:36:52.507Z,44.31
2023-05-11T23:39:55.389Z,44.62
2023-05-11T23:42:58.372Z,44.45
2023-05-11T23:46:02.534Z,44.63
2023-05-11T23:49:05.134Z,44.73
2023-05-11T23:52:07.696Z,44.80
2023-05-11T23:55:10.902Z,44.73
2023-05-11T23:58:13.986Z,44.96
